الصفحة الرئيسية
METAR-TAF:

METAR-TAF

مطار :

مطار أوكلاند الدولي

أوكلاند, نيوزيلندا

دائرة عرض: 37-01S, خط طول: 174-48E, ارتفاع: 7 متر

مراقبة الطقس الحالي

تاريخ ووقت الإصدار 43 دقيقة قبل الساعة 18:00UTC
ريح 3 عقدة من الجنوب الشرقي
درجة الحرارة 13°درجة مئوية
الرطوبة 94%
ضغط 1017 hPa
الرؤية 10 كم أو أكثر

METAR: NZAA 011800Z AUTO 14003KT 9999 NCD 13/12 Q1017 TEMPO 0500 FG

زمن: 07:43 (18:43 UTC)

توقعات

تاريخ ووقت الإصدار 1ساعة و 19 دقيقة قبل الساعة 17:24UTC
التوقعات صالحة من01 الساعة 18 UTC إلى 02 الساعة 18 UTC
ريح 2 عقدةمن اتجاهات متغيرة
الرؤية 10 كم أو أكثر
الغيوم لا تقل 1500 م ولا وجود لمزنة ركامية السحاب الأسود
مؤقت
من 01 الساعة 18 UTC إلى 01 الساعة 21 UTC
الرؤية: 0500 متر
ضباب
أصبح
من 01 الساعة 23 UTC إلى 02 الساعة 01 UTC
ريح 10 عقدة من الغرب/الجنوب الغربي
أصبح
من 02 الساعة 10 UTC إلى 02 الساعة 12 UTC
ريح 5 عقدة من الجنوب/الجنوب الشرقي

TAF: NZAA 011724Z 0118/0218 VRB02KT CAVOK TEMPO 0118/0121 0500 FG BECMG 0123/0201 24010KT BECMG 0210/0212 16005KT

أرصاد الطقس والتوقعات من أكثر من 4000 مطار (تقارير الطقس للمطار METAR والتنبؤ بالطقس بالمطارTAF).

المحطات المتاحة هي النقط الصفراء والحمراء على الخريطة.

حرك المؤشر فوق النقطة لمعرفة اسم المحطة.

ثم انقر لمعرفة أرصاد وتوقعات الطقس.

لتغيير الخارطة: اضغط على الأزرار الخضراء مع رمز الصليب الأسود للتكبير. على الزر الأخضر مع شرطة للتصغير، أو على الأسهم الخضراء للخرائط المجاورة.


METAR-TAF: